Weather at Eureka Airport (1946) [CLOSED]

Public forecast

Using degrees Fahrenheit for public forecast. Weather courtesy of forecast.io.

Closest aviation weather report (METAR) to Eureka Airport (1946)

Closest report is Glacier Park International Airport, 49.1 nm (90.9 km) SE.

2024/07/18 22:55 (retrieved 37 minutes ago)

KGPI 182255Z VRB05KT 6SM FU CLR 33/10 A3004 RMK AO2 SLP143 T03280100

Closest aviation forecast (TAF) to Eureka Airport (1946)

Closest forecast is Glacier Park International Airport, 49.1 nm (90.9 km) SE.

2024/07/18 18:22 (retrieved 5 hours ago)

TAF KGPI 181720Z 1818/1918 15005KT 6SM FU SCT090 FM182100 20010KT 6SM FU SCT090 FM190200 VRB03KT P6SM SKC